Time;durP1;ratioP1;P1;durP2;ratioP2;P2;SDS_P1;SDS_P2;PMS_P1;PMS_P2;Temp;Humidity;BMP_temperature;BMP_pressure;BME280_temperature;BME280_humidity;BME280_pressure;Samples;Min_cycle;Max_cycle;Signal;HPM_P1;HPM_P2
2020/12/08 00:00:30;;;;;;;51.20;20.25;;;;;;;-1.17;97.05;95136.81;4941464;28;20031;-65
2020/12/08 00:02:56;;;;;;;54.78;20.65;;;;;;;-1.20;97.10;95148.19;4951581;28;20500;-64
2020/12/08 00:05:22;;;;;;;55.97;21.60;;;;;;;-1.23;97.62;95140.78;4934558;28;20054;-65
2020/12/08 00:07:48;;;;;;;54.80;22.98;;;;;;;-1.27;97.61;95141.78;4942873;28;20044;-63
2020/12/08 00:10:19;;;;;;;57.38;20.90;;;;;;;-1.30;97.99;95137.84;4934608;28;20105;-64
2020/12/08 00:12:49;;;;;;;56.13;21.23;;;;;;;-1.25;98.15;95139.56;4943723;28;20067;-63
2020/12/08 00:15:14;;;;;;;;;;;;;;;-1.23;98.52;95129.25;4938154;28;20057;-65
2020/12/08 00:17:39;;;;;;;67.40;26.23;;;;;;;-1.26;98.26;95136.09;4940477;28;19918;-64
2020/12/08 00:20:07;;;;;;;67.50;23.05;;;;;;;-1.30;98.62;95126.31;4936345;28;20484;-64
2020/12/08 00:22:33;;;;;;;65.53;23.48;;;;;;;-1.30;98.56;95129.00;4942803;28;20047;-63
2020/12/08 00:24:58;;;;;;;67.63;23.17;;;;;;;-1.30;98.89;95127.09;4942704;28;20046;-65
2020/12/08 00:27:23;;;;;;;63.55;22.10;;;;;;;-1.32;98.86;95115.13;4937551;28;20067;-64
2020/12/08 00:29:49;;;;;;;64.43;23.33;;;;;;;-1.32;98.96;95117.81;4942520;28;20043;-65
2020/12/08 00:32:15;;;;;;;70.60;23.45;;;;;;;-1.33;99.07;95117.03;4934199;28;20066;-65
2020/12/08 00:34:40;;;;;;;63.75;24.08;;;;;;;-1.32;98.98;95113.22;4943681;28;20040;-64
2020/12/08 00:37:06;;;;;;;64.57;22.33;;;;;;;-1.28;98.95;95118.72;4937483;28;20047;-63
2020/12/08 00:39:32;;;;;;;62.47;21.77;;;;;;;-1.28;98.99;95116.03;4941994;28;20044;-65
2020/12/08 00:41:58;;;;;;;63.53;23.00;;;;;;;-1.25;98.82;95108.09;4942172;28;20047;-65
2020/12/08 00:44:23;;;;;;;63.92;23.10;;;;;;;-1.24;98.80;95106.19;4934440;28;20253;-65
2020/12/08 00:46:49;;;;;;;63.08;21.35;;;;;;;-1.21;98.65;95105.53;4942879;28;20046;-64
2020/12/08 00:49:15;;;;;;;61.17;21.58;;;;;;;-1.18;98.32;95105.66;4936663;28;20098;-66
2020/12/08 00:51:41;;;;;;;57.90;22.48;;;;;;;-1.09;97.98;95104.81;4942201;28;20567;-65
2020/12/08 00:54:06;;;;;;;54.55;21.42;;;;;;;-1.11;97.70;95099.75;4937304;28;20052;-65
2020/12/08 00:56:32;;;;;;;59.65;22.05;;;;;;;-1.07;97.59;95102.56;4942983;28;20043;-65
2020/12/08 00:58:58;;;;;;;51.67;20.77;;;;;;;-1.05;96.95;95100.34;4940370;28;20054;-66
2020/12/08 01:01:23;;;;;;;56.25;20.35;;;;;;;-1.05;97.07;95108.41;4938764;28;20074;-65
2020/12/08 01:03:49;;;;;;;51.97;21.02;;;;;;;-1.01;96.60;95120.06;4943203;28;20059;-64
2020/12/08 01:06:14;;;;;;;40.80;17.10;;;;;;;-0.98;97.00;95124.78;4936679;28;20054;-66
2020/12/08 01:08:40;;;;;;;47.42;18.40;;;;;;;-0.96;96.22;95128.69;4945972;28;20083;-64
2020/12/08 01:11:05;;;;;;;46.67;18.80;;;;;;;-0.90;95.75;95117.72;4959413;28;20079;-63
2020/12/08 01:13:34;;;;;;;44.88;19.13;;;;;;;-0.89;95.33;95109.34;4956494;28;20051;-64
2020/12/08 01:16:03;;;;;;;46.90;19.38;;;;;;;-0.91;95.60;95113.50;4946366;28;20047;-65
2020/12/08 01:18:29;;;;;;;44.83;18.95;;;;;;;-0.91;95.15;95116.19;4945398;28;20053;-64
2020/12/08 01:20:57;;;;;;;41.22;18.20;;;;;;;-0.99;94.84;95115.94;4946301;28;20047;-65
2020/12/08 01:23:24;;;;;;;37.70;16.92;;;;;;;-1.09;95.68;95119.03;4940040;28;20128;-66
2020/12/08 01:25:49;;;;;;;44.03;17.48;;;;;;;-1.12;95.89;95126.97;4953808;28;20047;-65
2020/12/08 01:28:17;;;;;;;42.78;17.48;;;;;;;-1.19;95.83;95111.34;4940011;28;20051;-66
2020/12/08 01:30:43;;;;;;;42.50;17.50;;;;;;;-1.25;95.53;95121.53;4946029;28;20043;-65
2020/12/08 01:33:08;;;;;;;48.33;20.45;;;;;;;-1.58;96.44;95116.91;4939925;28;20050;-64
2020/12/08 01:35:33;;;;;;;45.17;18.50;;;;;;;-1.64;97.29;95112.84;4944625;28;20051;-66
2020/12/08 01:37:59;;;;;;;44.80;18.58;;;;;;;-1.58;97.14;95113.44;4944971;28;20078;-63
2020/12/08 01:40:24;;;;;;;41.22;17.83;;;;;;;-1.55;97.38;95132.34;4936838;28;20055;-66
2020/12/08 01:42:50;;;;;;;48.53;18.50;;;;;;;-1.51;97.38;95126.31;4945542;28;20110;-64
2020/12/08 01:45:15;;;;;;;48.72;18.88;;;;;;;-1.39;97.59;95118.31;4939975;28;20040;-65
2020/12/08 01:47:42;;;;;;;45.00;18.05;;;;;;;-1.37;97.35;95106.16;4944674;28;20050;-65
2020/12/08 01:50:07;;;;;;;47.83;19.30;;;;;;;-1.13;96.98;95106.56;4938416;28;20042;-66
2020/12/08 01:52:33;;;;;;;40.75;17.30;;;;;;;-1.11;97.18;95098.97;4944265;28;20047;-64
2020/12/08 01:55:00;;;;;;;46.55;19.88;;;;;;;-1.16;96.79;95102.66;4944472;28;20074;-67
2020/12/08 01:57:26;;;;;;;43.83;17.70;;;;;;;-1.27;96.60;95090.75;4945928;28;20101;-64
2020/12/08 01:59:51;;;;;;;43.88;18.92;;;;;;;-1.32;96.70;95097.09;4967430;28;20042;-64
2020/12/08 02:02:17;;;;;;;43.75;18.73;;;;;;;-1.33;96.74;95098.22;4953862;28;20043;-65
2020/12/08 02:04:42;;;;;;;48.42;18.83;;;;;;;-1.33;96.57;95103.59;4947759;28;20047;-66
2020/12/08 02:07:07;;;;;;;47.15;19.35;;;;;;;-1.33;96.28;95114.34;4967141;28;20075;-65
2020/12/08 02:09:37;;;;;;;46.95;18.52;;;;;;;-1.22;96.09;95107.44;4977835;28;20084;-64
2020/12/08 02:12:03;;;;;;;58.35;23.35;;;;;;;-1.18;95.55;95110.25;4978949;28;20047;-65
2020/12/08 02:14:29;;;;;;;52.67;23.17;;;;;;;-1.28;95.34;95102.59;4962409;28;20047;-65
2020/12/08 02:16:54;;;;;;;47.20;19.27;;;;;;;-1.26;95.30;95090.44;4964384;28;20041;-64
2020/12/08 02:19:20;;;;;;;47.40;18.90;;;;;;;-1.35;95.45;95089.72;4955596;28;20035;-66
2020/12/08 02:21:45;;;;;;;47.10;18.13;;;;;;;-1.45;95.30;95101.63;4943675;28;20051;-67
2020/12/08 02:24:11;;;;;;;47.38;18.60;;;;;;;-1.45;95.58;95095.47;4951433;28;20129;-62
2020/12/08 02:26:36;;;;;;;44.58;18.70;;;;;;;-1.46;95.60;95094.69;4963662;28;20053;-66
2020/12/08 02:29:02;;;;;;;48.53;18.95;;;;;;;-1.40;95.31;95095.28;4963221;28;20047;-63
2020/12/08 02:31:27;;;;;;;48.63;17.83;;;;;;;-1.50;95.58;95101.03;4959996;28;20046;-66
2020/12/08 02:33:52;;;;;;;43.90;18.27;;;;;;;-1.49;95.42;95105.31;4963371;28;20117;-65
2020/12/08 02:36:18;;;;;;;42.30;17.00;;;;;;;-1.56;95.49;95103.91;4958244;28;20043;-65
2020/12/08 02:38:43;;;;;;;39.47;15.75;;;;;;;-1.60;95.55;95094.97;4962810;28;20058;-65
2020/12/08 02:41:09;;;;;;;39.92;16.85;;;;;;;-1.59;95.65;95096.50;4958642;28;20043;-65
2020/12/08 02:43:34;;;;;;;46.03;17.45;;;;;;;-1.66;95.35;95096.25;4964192;28;20114;-67
2020/12/08 02:46:00;;;;;;;37.75;15.82;;;;;;;-1.65;95.70;95091.69;4962887;28;20039;-65
2020/12/08 02:48:25;;;;;;;41.90;17.02;;;;;;;-1.77;95.63;95093.16;4961392;28;20113;-66
2020/12/08 02:50:51;;;;;;;36.22;15.30;;;;;;;-1.77;95.69;95089.72;4970416;28;20050;-65
2020/12/08 02:53:17;;;;;;;36.55;17.10;;;;;;;-1.81;95.81;95089.56;4958421;28;20054;-66
2020/12/08 02:55:48;;;;;;;39.22;16.42;;;;;;;-2.00;95.23;95086.53;4964029;28;20543;-66
2020/12/08 02:58:15;;;;;;;38.38;15.65;;;;;;;-2.10;95.20;95087.72;4958094;28;20106;-65
2020/12/08 03:00:40;;;;;;;39.63;16.35;;;;;;;-2.14;95.63;95095.63;4964056;28;20038;-65
2020/12/08 03:03:06;;;;;;;39.33;16.58;;;;;;;-2.32;95.95;95086.88;4958517;28;20047;-67
2020/12/08 03:05:31;;;;;;;58.33;16.27;;;;;;;-2.50;96.59;95086.19;4962809;28;20046;-66
2020/12/08 03:07:56;;;;;;;42.22;17.08;;;;;;;-2.53;96.96;95083.34;4963325;28;20074;-65
2020/12/08 03:10:22;;;;;;;42.83;15.85;;;;;;;-2.55;96.96;95080.22;4958200;28;20252;-66
2020/12/08 03:12:47;;;;;;;67.45;16.83;;;;;;;-2.62;97.75;95090.66;4962365;28;20038;-65
2020/12/08 03:15:13;;;;;;;54.20;18.08;;;;;;;-2.66;97.76;95081.69;4959009;28;20051;-66
2020/12/08 03:17:38;;;;;;;46.78;18.00;;;;;;;-2.70;97.84;95074.28;4962489;28;20396;-65
2020/12/08 03:20:05;;;;;;;86.55;19.73;;;;;;;-2.67;98.54;95077.41;4947901;28;20035;-65
2020/12/08 03:22:30;;;;;;;62.22;19.38;;;;;;;-2.78;98.83;95083.13;4943318;28;20138;-64
2020/12/08 03:24:56;;;;;;;91.45;32.17;;;;;;;-2.69;99.18;95081.19;4974186;28;20148;-64
2020/12/08 03:27:21;;;;;;;70.80;20.50;;;;;;;-2.55;100.00;95078.31;4974607;28;20352;-65
2020/12/08 03:29:47;;;;;;;69.97;22.60;;;;;;;-2.53;100.00;95084.13;4962982;28;20039;-65
2020/12/08 03:32:12;;;;;;;64.28;21.13;;;;;;;-2.54;100.00;95076.41;4957559;28;20043;-65
2020/12/08 03:34:38;;;;;;;63.72;20.30;;;;;;;-2.44;100.00;95067.22;4962632;28;20043;-66
2020/12/08 03:37:03;;;;;;;53.45;17.98;;;;;;;-2.41;100.00;95063.88;4960324;28;20070;-64
2020/12/08 03:39:29;;;;;;;60.20;20.75;;;;;;;-2.36;100.00;95067.19;4960742;28;20068;-68
2020/12/08 03:42:04;;;;;;;56.35;19.88;;;;;;;-2.36;100.00;95066.38;4962530;28;20046;-65
2020/12/08 03:44:30;;;;;;;55.17;19.35;;;;;;;-2.28;100.00;95065.56;4962872;28;20046;-67
2020/12/08 03:46:57;;;;;;;63.65;20.92;;;;;;;-2.24;100.00;95054.97;4963105;28;20035;-66
2020/12/08 03:49:26;;;;;;;54.28;19.60;;;;;;;-2.15;100.00;95055.72;4963447;28;20449;-65
2020/12/08 03:51:55;;;;;;;50.83;18.80;;;;;;;-2.03;100.00;95063.84;4984053;28;20472;-67
2020/12/08 03:54:21;;;;;;;54.63;21.15;;;;;;;-1.87;100.00;95055.19;4977676;28;20043;-66
2020/12/08 03:56:47;;;;;;;60.70;19.90;;;;;;;-1.80;98.85;95053.59;4965595;28;20057;-66
2020/12/08 03:59:19;;;;;;;52.05;18.70;;;;;;;-1.82;98.61;95060.38;4957694;28;20674;-66
2020/12/08 04:01:49;;;;;;;51.20;19.40;;;;;;;-1.83;97.37;95064.97;4961950;28;20051;-66
2020/12/08 04:04:16;;;;;;;51.15;17.33;;;;;;;-1.70;97.73;95070.41;4957633;28;20130;-66
2020/12/08 04:06:42;;;;;;;46.83;18.00;;;;;;;-1.48;97.11;95064.69;4960562;28;20175;-66
2020/12/08 04:09:07;;;;;;;43.65;19.48;;;;;;;-1.46;96.59;95065.16;4955769;28;20046;-63
2020/12/08 04:11:33;;;;;;;43.95;16.58;;;;;;;-1.51;96.10;95064.56;4951105;28;20452;-65
2020/12/08 04:14:02;;;;;;;39.88;16.25;;;;;;;-1.52;96.10;95055.72;4942629;28;20051;-65
2020/12/08 04:16:29;;;;;;;44.38;17.90;;;;;;;-1.57;95.88;95056.72;4936621;28;20093;-66
2020/12/08 04:18:54;;;;;;;43.08;17.02;;;;;;;-1.61;95.13;95055.78;4953574;28;20053;-65
2020/12/08 04:21:21;;;;;;;38.30;16.88;;;;;;;-1.62;94.67;95048.88;4937560;28;20043;-64
2020/12/08 04:23:47;;;;;;;38.97;16.13;;;;;;;-1.52;94.78;95047.66;4943444;28;20043;-68
2020/12/08 04:26:13;;;;;;;38.47;17.95;;;;;;;-1.61;94.49;95052.31;4937028;28;20062;-65
2020/12/08 04:28:38;;;;;;;37.15;15.93;;;;;;;-1.67;94.34;95059.81;4944596;28;20134;-67
2020/12/08 04:31:04;;;;;;;39.25;15.65;;;;;;;-1.69;94.69;95053.97;4956352;28;20070;-63
2020/12/08 04:33:29;;;;;;;38.47;16.05;;;;;;;-1.61;94.54;95061.16;4959464;28;20043;-67
2020/12/08 04:35:54;;;;;;;42.53;17.30;;;;;;;-1.53;94.48;95054.16;4948418;28;20380;-67
2020/12/08 04:38:20;;;;;;;35.03;15.48;;;;;;;-1.57;94.40;95058.59;4946503;28;20453;-64
2020/12/08 04:40:48;;;;;;;39.05;16.52;;;;;;;-1.48;93.80;95059.31;4947723;28;20047;-66
2020/12/08 04:43:14;;;;;;;38.08;15.65;;;;;;;-1.49;93.76;95054.28;4941465;28;20040;-67
2020/12/08 04:45:40;;;;;;;34.40;14.93;;;;;;;-1.56;93.87;95063.66;4946583;28;20046;-69
2020/12/08 04:48:05;;;;;;;33.70;15.80;;;;;;;-1.50;93.66;95055.41;4940573;28;20075;-64
2020/12/08 04:50:31;;;;;;;41.17;15.20;;;;;;;-1.39;93.80;95059.25;4944031;28;20102;-64
2020/12/08 04:52:56;;;;;;;35.83;14.13;;;;;;;-1.32;93.32;95059.50;4944882;28;20047;-65
2020/12/08 04:55:22;;;;;;;29.50;13.02;;;;;;;-1.17;92.50;95053.50;4940023;28;20059;-64
2020/12/08 04:57:48;;;;;;;36.58;16.08;;;;;;;-1.28;91.50;95057.72;4946034;28;20054;-66
2020/12/08 05:00:14;;;;;;;32.25;13.10;;;;;;;-1.73;91.56;95048.47;4938453;28;20074;-66
2020/12/08 05:02:54;;;;;;;32.40;15.57;;;;;;;-2.58;94.17;95046.78;4945762;28;20047;-66
2020/12/08 05:05:20;;;;;;;39.85;17.15;;;;;;;-2.97;95.97;95056.72;4941174;28;20040;-66
2020/12/08 05:07:46;;;;;;;38.97;16.23;;;;;;;-2.93;96.44;95051.50;4943892;28;20043;-67
2020/12/08 05:10:28;;;;;;;48.88;18.52;;;;;;;-2.94;97.06;95057.97;4940291;28;20093;-65
2020/12/08 05:12:55;;;;;;;42.53;17.02;;;;;;;-2.99;97.58;95058.13;4945384;28;20039;-65
2020/12/08 05:15:21;;;;;;;44.67;17.20;;;;;;;-2.86;97.60;95067.88;4940475;28;20134;-64
2020/12/08 05:17:47;;;;;;;49.53;17.48;;;;;;;-2.79;97.49;95070.03;4945729;28;20452;-66
2020/12/08 05:20:14;;;;;;;42.35;16.88;;;;;;;-2.78;97.27;95063.59;4938763;28;20102;-65
2020/12/08 05:22:53;;;;;;;46.00;18.10;;;;;;;-2.63;97.29;95062.25;4944022;28;20047;-65
2020/12/08 05:25:19;;;;;;;47.33;17.73;;;;;;;-2.59;97.54;95065.84;4940572;28;20473;-64
2020/12/08 05:27:48;;;;;;;50.40;19.30;;;;;;;-2.45;97.22;95071.78;4945310;28;20074;-67
2020/12/08 05:30:14;;;;;;;31.85;12.85;;;;;;;-2.43;97.19;95076.84;4940882;28;20050;-65
2020/12/08 05:32:41;;;;;;;44.35;18.17;;;;;;;-2.53;97.24;95076.09;4944261;28;20047;-64
2020/12/08 05:35:08;;;;;;;46.28;16.55;;;;;;;-2.61;96.88;95090.34;4940481;28;20094;-65
2020/12/08 05:37:36;;;;;;;48.55;18.38;;;;;;;-2.71;96.91;95074.59;4948779;28;20043;-67
2020/12/08 05:40:05;;;;;;;42.15;17.50;;;;;;;-2.83;96.86;95077.94;4970124;28;20087;-65
2020/12/08 05:42:33;;;;;;;38.25;16.27;;;;;;;-2.88;96.91;95070.09;4943599;28;20051;-65
2020/12/08 05:44:59;;;;;;;45.25;17.35;;;;;;;-2.91;97.31;95084.13;4945627;28;20047;-66
2020/12/08 05:47:25;;;;;;;47.67;19.08;;;;;;;-2.92;97.18;95085.22;4939824;28;20567;-67
2020/12/08 05:50:00;;;;;;;49.13;19.25;;;;;;;-2.93;97.31;95079.06;4944832;28;20040;-67
2020/12/08 05:52:33;;;;;;;45.38;17.58;;;;;;;-2.87;97.07;95085.03;4937361;28;20134;-67
2020/12/08 05:55:28;;;;;;;42.85;17.40;;;;;;;-2.74;96.84;95089.44;4945035;28;20448;-66
2020/12/08 05:58:01;;;;;;;43.95;16.23;;;;;;;-2.71;96.96;95088.00;4944015;28;20035;-67
2020/12/08 06:00:28;;;;;;;47.20;17.15;;;;;;;-2.75;96.70;95095.88;4942273;28;20043;-65
2020/12/08 06:02:55;;;;;;;42.00;16.52;;;;;;;-2.90;96.66;95099.06;4950032;28;20090;-67
2020/12/08 06:05:27;;;;;;;38.95;15.95;;;;;;;-2.99;96.65;95091.09;4939704;28;20044;-66
2020/12/08 06:07:53;;;;;;;40.72;16.25;;;;;;;-2.97;96.96;95098.78;4944120;28;20452;-66
2020/12/08 06:10:18;;;;;;;38.70;15.85;;;;;;;-3.04;96.73;95098.47;4939168;28;20043;-66
2020/12/08 06:12:56;;;;;;;38.03;15.32;;;;;;;-3.08;96.66;95101.81;4944959;28;20074;-66
2020/12/08 06:15:23;;;;;;;39.53;15.10;;;;;;;-3.12;96.67;95095.50;4939240;28;21157;-64
2020/12/08 06:17:49;;;;;;;41.55;15.63;;;;;;;-3.11;96.46;95097.09;4944570;28;20146;-64
2020/12/08 06:20:15;;;;;;;39.20;16.33;;;;;;;-3.08;96.71;95098.31;4939008;28;20129;-65
2020/12/08 06:22:40;;;;;;;46.53;17.50;;;;;;;-3.05;96.90;95096.91;4941496;28;20058;-66
2020/12/08 06:25:06;;;;;;;41.92;17.00;;;;;;;-3.16;96.65;95089.22;4939742;28;20046;-66
2020/12/08 06:27:33;;;;;;;44.90;17.85;;;;;;;-3.14;96.95;95091.56;4942125;28;20039;-66
2020/12/08 06:29:58;;;;;;;60.10;26.67;;;;;;;-3.25;96.89;95101.06;4943413;28;20064;-67
2020/12/08 06:32:29;;;;;;;41.45;19.17;;;;;;;-3.34;96.99;95093.03;4937189;28;20082;-67
2020/12/08 06:35:12;;;;;;;46.50;17.02;;;;;;;-3.44;96.94;95090.66;4943172;28;20051;-66
2020/12/08 06:37:44;;;;;;;39.08;16.42;;;;;;;-3.48;97.26;95093.97;4943799;28;20098;-66
2020/12/08 06:40:15;;;;;;;52.78;20.95;;;;;;;-3.48;96.92;95106.56;4940212;28;20074;-65
2020/12/08 06:42:41;;;;;;;46.47;17.65;;;;;;;-3.14;97.96;95107.66;4944678;28;20755;-67
2020/12/08 06:45:15;;;;;;;51.10;17.88;;;;;;;-3.24;97.86;95107.97;4938845;28;20051;-64
2020/12/08 06:47:42;;;;;;;43.60;17.30;;;;;;;-3.15;97.85;95111.41;4943313;28;20043;-66
2020/12/08 06:50:21;;;;;;;43.55;17.60;;;;;;;-3.01;97.81;95103.97;4938267;28;20504;-66
2020/12/08 06:53:00;;;;;;;40.97;16.42;;;;;;;-2.98;97.46;95107.94;4958204;28;20043;-68
2020/12/08 06:55:27;;;;;;;45.25;17.48;;;;;;;-2.95;97.34;95109.97;4956811;28;20059;-66
2020/12/08 06:57:53;;;;;;;38.88;15.93;;;;;;;-3.00;97.22;95105.56;4953045;28;20074;-66
2020/12/08 07:00:18;;;;;;;42.35;16.55;;;;;;;-2.89;96.75;95108.69;4938373;28;20043;-66
2020/12/08 07:02:49;;;;;;;44.22;17.25;;;;;;;-2.89;96.39;95122.88;4949361;28;20066;-65
2020/12/08 07:05:23;;;;;;;39.83;17.80;;;;;;;-2.92;95.43;95120.03;4940365;28;20054;-67
2020/12/08 07:07:49;;;;;;;42.05;15.80;;;;;;;-2.98;95.58;95124.00;4945276;28;20469;-66
2020/12/08 07:10:17;;;;;;;50.28;21.60;;;;;;;-3.28;95.64;95118.50;4938248;28;20043;-66
2020/12/08 07:12:44;;;;;;;67.40;32.85;;;;;;;-3.54;95.97;95116.66;4944375;28;20513;-65
2020/12/08 07:15:18;;;;;;;109.30;59.35;;;;;;;-3.53;96.42;95114.75;4941228;28;20044;-66
2020/12/08 07:17:44;;;;;;;73.35;36.00;;;;;;;-3.59;96.15;95116.78;4928223;29;20039;-66
2020/12/08 07:20:10;;;;;;;45.05;19.05;;;;;;;-3.62;96.36;95109.38;4948877;28;20046;-63
2020/12/08 07:22:44;;;;;;;39.85;16.30;;;;;;;-3.46;96.85;95113.19;4945750;28;20058;-65
2020/12/08 07:25:11;;;;;;;46.10;18.75;;;;;;;-3.17;97.33;95127.81;4926711;28;20044;-67
2020/12/08 07:27:41;;;;;;;47.28;18.38;;;;;;;-3.35;96.44;95120.88;4952603;28;20051;-67
2020/12/08 07:30:07;;;;;;;50.20;18.75;;;;;;;-3.28;96.33;95126.56;4938570;28;20804;-64
2020/12/08 07:32:32;;;;;;;41.58;16.85;;;;;;;-3.12;96.21;95124.19;4943874;28;20051;-66
2020/12/08 07:34:57;;;;;;;42.30;16.30;;;;;;;-3.07;96.19;95132.81;4944010;28;20058;-66
2020/12/08 07:37:23;;;;;;;37.95;16.27;;;;;;;-3.04;95.55;95141.34;4939571;28;20138;-65
2020/12/08 07:39:48;;;;;;;45.70;15.90;;;;;;;-3.17;95.17;95135.03;4943785;28;20039;-66
2020/12/08 07:42:17;;;;;;;40.92;16.08;;;;;;;-3.10;95.30;95140.72;4939066;28;20062;-65
2020/12/08 07:44:54;;;;;;;37.72;15.38;;;;;;;-3.03;95.04;95141.03;4942078;28;20074;-65
2020/12/08 07:47:19;;;;;;;41.85;16.80;;;;;;;-2.99;95.20;95141.16;4936763;28;20039;-65
2020/12/08 07:49:44;;;;;;;39.85;15.48;;;;;;;-3.01;94.79;95140.69;4943532;28;20082;-66
2020/12/08 07:52:10;;;;;;;39.33;15.82;;;;;;;-2.92;94.95;95136.94;4948960;28;20058;-64
2020/12/08 07:54:35;;;;;;;42.55;18.60;;;;;;;-2.83;94.99;95144.91;4962914;28;20053;-67
2020/12/08 07:57:00;;;;;;;83.75;33.53;;;;;;;-3.04;93.93;95147.50;4945332;28;20370;-67
2020/12/08 07:59:26;;;;;;;82.40;37.22;;;;;;;-3.66;95.00;95146.69;4937296;28;20082;-64
2020/12/08 08:01:51;;;;;;;70.97;28.17;;;;;;;-3.82;96.26;95158.94;4941642;28;20059;-69
2020/12/08 08:04:18;;;;;;;53.90;22.05;;;;;;;-3.72;96.60;95171.25;4942259;28;20117;-65
2020/12/08 08:06:44;;;;;;;56.38;23.55;;;;;;;-3.67;96.20;95161.19;4943658;28;20043;-66
2020/12/08 08:09:09;;;;;;;47.00;18.90;;;;;;;-3.61;96.02;95151.13;4937428;28;20392;-67
2020/12/08 08:11:35;;;;;;;49.72;19.05;;;;;;;-3.39;96.45;95154.75;4943410;28;20047;-67
2020/12/08 08:14:01;;;;;;;47.60;17.83;;;;;;;-3.19;96.17;95172.06;4941930;28;20047;-67
2020/12/08 08:16:28;;;;;;;47.47;20.75;;;;;;;-3.14;95.97;95172.69;4929405;28;20055;-67
2020/12/08 08:18:53;;;;;;;44.65;18.73;;;;;;;-3.10;95.74;95178.22;4942117;28;20121;-66
2020/12/08 08:21:19;;;;;;;44.47;18.48;;;;;;;-2.95;95.56;95175.06;4940696;28;20063;-66
2020/12/08 08:23:45;;;;;;;40.65;16.95;;;;;;;-2.93;94.82;95166.72;4946446;28;20051;-66
2020/12/08 08:26:11;;;;;;;41.03;16.55;;;;;;;-2.89;94.47;95160.38;4942521;28;20114;-66
2020/12/08 08:28:36;;;;;;;41.75;17.25;;;;;;;-2.58;93.65;95166.63;4946477;28;20484;-66
2020/12/08 08:31:02;;;;;;;35.08;15.85;;;;;;;-2.65;92.78;95171.69;4945970;28;20051;-65
2020/12/08 08:33:28;;;;;;;38.63;14.82;;;;;;;-2.50;92.55;95171.19;4945070;28;20047;-66
2020/12/08 08:35:54;;;;;;;36.58;14.18;;;;;;;-2.44;92.20;95169.13;4946466;28;20046;-67
2020/12/08 08:38:21;;;;;;;39.78;17.00;;;;;;;-2.47;91.71;95170.53;4948851;28;20463;-67
2020/12/08 08:40:47;;;;;;;39.00;17.08;;;;;;;-2.40;92.15;95173.50;4949930;28;20051;-66
2020/12/08 08:43:13;;;;;;;39.85;15.40;;;;;;;-2.36;91.46;95171.78;4941335;28;20448;-64
2020/12/08 08:45:38;;;;;;;46.90;18.25;;;;;;;-2.29;90.79;95160.53;4943916;28;20071;-67
2020/12/08 08:48:05;;;;;;;45.75;21.50;;;;;;;-2.62;89.96;95163.03;4943618;28;20047;-64
2020/12/08 08:50:30;;;;;;;42.30;18.98;;;;;;;-2.46;90.09;95172.13;4946399;28;20135;-67
2020/12/08 08:52:56;;;;;;;45.78;19.48;;;;;;;-2.23;90.46;95166.50;4946618;28;20560;-65
2020/12/08 08:55:21;;;;;;;40.60;19.13;;;;;;;-2.20;89.82;95160.50;4943161;28;20078;-67
2020/12/08 08:57:46;;;;;;;86.50;35.92;;;;;;;-2.59;90.55;95155.13;4948453;28;20387;-67
2020/12/08 09:00:12;;;;;;;42.78;17.48;;;;;;;-2.99;92.68;95163.41;4940350;28;20040;-66
2020/12/08 09:02:37;;;;;;;46.10;18.75;;;;;;;-2.83;93.04;95155.63;4947521;28;20070;-67
2020/12/08 09:05:05;;;;;;;51.78;24.42;;;;;;;-2.41;93.16;95163.09;4947057;28;20051;-63
2020/12/08 09:07:30;;;;;;;82.28;33.50;;;;;;;-2.18;92.61;95161.75;4947942;28;20124;-67
2020/12/08 09:10:00;;;;;;;55.90;25.10;;;;;;;-1.86;91.70;95159.53;4945429;28;20073;-66
2020/12/08 09:12:26;;;;;;;55.08;23.35;;;;;;;-1.73;90.47;95152.34;4948433;28;20043;-66
2020/12/08 09:14:55;;;;;;;44.40;21.63;;;;;;;-1.95;90.37;95156.13;4964660;28;20114;-65
2020/12/08 09:17:21;;;;;;;37.20;17.30;;;;;;;-1.82;89.82;95163.16;4959794;28;20051;-66
2020/12/08 09:19:46;;;;;;;39.33;16.83;;;;;;;-1.47;90.22;95154.88;4964728;28;20105;-66
2020/12/08 09:22:12;;;;;;;43.17;17.95;;;;;;;-1.19;88.69;95157.84;4939121;28;20072;-66
2020/12/08 09:24:37;;;;;;;36.15;16.80;;;;;;;-0.69;87.89;95153.41;4945403;28;20140;-66
2020/12/08 09:27:04;;;;;;;32.17;15.73;;;;;;;-0.26;86.23;95157.53;4942605;28;20047;-65
2020/12/08 09:29:30;;;;;;;34.28;16.13;;;;;;;-0.06;83.82;95153.19;4942730;28;20941;-67
2020/12/08 09:31:56;;;;;;;33.40;15.85;;;;;;;0.27;83.32;95151.50;4946012;28;20051;-67
2020/12/08 09:34:23;;;;;;;44.47;18.30;;;;;;;0.34;80.47;95165.97;4940987;28;20514;-67
2020/12/08 09:36:49;;;;;;;33.15;14.65;;;;;;;0.66;81.16;95158.06;4944470;28;20047;-65
2020/12/08 09:39:15;;;;;;;28.52;14.25;;;;;;;1.00;78.26;95152.47;4939109;28;20043;-67
2020/12/08 09:41:41;;;;;;;99.28;49.20;;;;;;;0.88;78.65;95161.38;4947205;28;20058;-66
2020/12/08 09:44:09;;;;;;;40.88;19.20;;;;;;;1.02;79.77;95159.09;4940558;28;20051;-68
2020/12/08 09:46:35;;;;;;;29.27;14.40;;;;;;;1.33;78.63;95160.31;4945843;28;20043;-67
2020/12/08 09:49:01;;;;;;;31.02;13.60;;;;;;;1.14;77.89;95158.25;4949097;28;20382;-66
2020/12/08 09:51:26;;;;;;;27.27;14.05;;;;;;;1.28;78.29;95152.47;4943664;28;20058;-67
2020/12/08 09:53:51;;;;;;;26.73;13.20;;;;;;;1.58;76.69;95147.47;4945540;28;20082;-65
2020/12/08 09:56:17;;;;;;;29.67;14.73;;;;;;;1.21;78.11;95153.06;4940954;28;20078;-67
2020/12/08 09:58:42;;;;;;;38.88;19.70;;;;;;;0.00;81.14;95151.09;4944161;28;20576;-66
2020/12/08 10:01:07;;;;;;;45.95;25.00;;;;;;;0.31;83.09;95137.03;4946591;28;20043;-66
2020/12/08 10:03:36;;;;;;;29.85;14.68;;;;;;;1.21;80.69;95138.81;4952942;28;20058;-67
2020/12/08 10:06:02;;;;;;;33.88;14.73;;;;;;;1.90;77.11;95134.78;4933631;28;20036;-64
2020/12/08 10:08:28;;;;;;;38.35;14.35;;;;;;;1.93;74.80;95138.72;4943748;28;20085;-67
2020/12/08 10:10:53;;;;;;;33.30;14.35;;;;;;;2.05;75.61;95143.22;4951079;28;20099;-65
2020/12/08 10:13:19;;;;;;;27.85;13.75;;;;;;;2.57;73.68;95147.50;4957543;28;20051;-66
2020/12/08 10:15:44;;;;;;;29.65;12.52;;;;;;;2.26;73.40;95148.34;4961305;28;20086;-66
2020/12/08 10:18:09;;;;;;;26.48;12.40;;;;;;;2.59;71.57;95136.34;4936679;28;20043;-66
2020/12/08 10:20:36;;;;;;;27.60;12.63;;;;;;;2.32;74.23;95138.81;4943266;28;20485;-65
2020/12/08 10:23:02;;;;;;;33.20;15.30;;;;;;;1.12;77.90;95126.25;4941892;28;20054;-66
2020/12/08 10:25:28;;;;;;;31.98;14.93;;;;;;;0.30;82.25;95135.44;4941259;28;20063;-66
2020/12/08 10:27:53;;;;;;;29.38;15.75;;;;;;;-0.22;84.18;95139.63;4945005;28;20078;-64
2020/12/08 10:30:19;;;;;;;24.65;13.07;;;;;;;-0.44;84.06;95140.03;4939618;28;20113;-66
2020/12/08 10:32:45;;;;;;;24.65;12.25;;;;;;;-0.66;86.83;95133.94;4944107;28;20047;-67
2020/12/08 10:35:10;;;;;;;26.45;12.13;;;;;;;-0.80;86.45;95139.59;4939836;28;20035;-67
2020/12/08 10:37:35;;;;;;;27.88;12.15;;;;;;;-0.87;86.87;95130.53;4944104;28;20633;-65
2020/12/08 10:40:01;;;;;;;25.65;11.88;;;;;;;-0.43;86.76;95133.56;4941749;28;20047;-67
2020/12/08 10:42:26;;;;;;;25.25;10.85;;;;;;;-0.18;86.14;95130.88;4938341;28;20047;-68
2020/12/08 10:44:51;;;;;;;25.17;11.65;;;;;;;-0.25;85.06;95123.38;4940020;28;20130;-66
2020/12/08 10:47:18;;;;;;;28.05;13.05;;;;;;;-0.40;85.47;95133.66;4945378;28;20055;-68
2020/12/08 10:49:43;;;;;;;29.63;13.13;;;;;;;-0.25;84.96;95134.13;4947140;28;20122;-66
2020/12/08 10:52:08;;;;;;;27.77;14.77;;;;;;;-0.25;85.45;95137.59;4940267;28;20401;-66
2020/12/08 10:54:34;;;;;;;25.77;12.98;;;;;;;-0.14;85.38;95137.94;4944543;28;20051;-67
2020/12/08 10:56:59;;;;;;;37.95;16.40;;;;;;;0.32;83.91;95127.81;4943519;28;20074;-66
2020/12/08 10:59:25;;;;;;;27.00;12.63;;;;;;;1.09;80.74;95126.94;4938257;28;20062;-66
2020/12/08 11:01:50;;;;;;;25.80;12.18;;;;;;;1.14;79.98;95118.59;4942238;28;20047;-68
2020/12/08 11:04:15;;;;;;;24.70;11.80;;;;;;;1.29;79.54;95114.34;4939010;28;20702;-67
2020/12/08 11:06:45;;;;;;;26.70;12.05;;;;;;;1.76;78.10;95123.63;4944071;28;20046;-66
2020/12/08 11:09:10;;;;;;;27.52;12.18;;;;;;;1.93;77.66;95109.00;4939812;28;20738;-65
2020/12/08 11:11:35;;;;;;;27.75;13.15;;;;;;;2.39;75.40;95106.56;4942424;28;20058;-66
2020/12/08 11:14:01;;;;;;;28.00;13.25;;;;;;;2.47;75.47;95104.81;4942069;28;20039;-65